sensor_id;sensor_type;location;lat;lon;timestamp;pressure;altitude;pressure_sealevel;temperature;humidity
14800;BME280;7491;57.750;11.970;2023-04-29T00:01:17;76430.72;;;-142.11;100.00
14800;BME280;7491;57.750;11.970;2023-04-29T00:03:45;76434.78;;;-142.11;100.00
14800;BME280;7491;57.750;11.970;2023-04-29T00:06:11;76432.75;;;-142.11;100.00
14800;BME280;7491;57.750;11.970;2023-04-29T00:08:38;76434.78;;;-142.11;100.00
14800;BME280;7491;57.750;11.970;2023-04-29T00:11:05;76438.88;;;-142.11;100.00
14800;BME280;7491;57.750;11.970;2023-04-29T00:13:32;76436.84;;;-142.11;100.00
14800;BME280;7491;57.750;11.970;2023-04-29T00:15:59;76438.88;;;-142.11;100.00
14800;BME280;7491;57.750;11.970;2023-04-29T00:18:25;76430.72;;;-142.11;100.00
14800;BME280;7491;57.750;11.970;2023-04-29T00:20:53;76432.75;;;-142.11;100.00
14800;BME280;7491;57.750;11.970;2023-04-29T00:23:20;76438.88;;;-142.11;100.00
14800;BME280;7491;57.750;11.970;2023-04-29T00:25:47;76442.94;;;-142.11;100.00
14800;BME280;7491;57.750;11.970;2023-04-29T00:28:14;76438.88;;;-142.11;100.00
14800;BME280;7491;57.750;11.970;2023-04-29T00:30:41;76447.03;;;-142.11;100.00
14800;BME280;7491;57.750;11.970;2023-04-29T00:33:08;76445.00;;;-142.11;100.00
14800;BME280;7491;57.750;11.970;2023-04-29T00:35:35;76442.94;;;-142.11;100.00
14800;BME280;7491;57.750;11.970;2023-04-29T00:38:03;76449.06;;;-142.11;100.00
14800;BME280;7491;57.750;11.970;2023-04-29T00:40:30;76447.03;;;-142.11;100.00
14800;BME280;7491;57.750;11.970;2023-04-29T00:42:56;76442.94;;;-142.11;100.00
14800;BME280;7491;57.750;11.970;2023-04-29T00:45:23;76440.91;;;-142.11;100.00
14800;BME280;7491;57.750;11.970;2023-04-29T00:47:51;76447.03;;;-142.11;100.00
14800;BME280;7491;57.750;11.970;2023-04-29T00:50:18;76445.00;;;-142.11;100.00
14800;BME280;7491;57.750;11.970;2023-04-29T00:52:46;76447.03;;;-142.11;100.00
14800;BME280;7491;57.750;11.970;2023-04-29T00:55:15;76449.06;;;-142.11;100.00
14800;BME280;7491;57.750;11.970;2023-04-29T00:57:42;76449.06;;;-142.11;100.00
14800;BME280;7491;57.750;11.970;2023-04-29T01:00:12;76453.16;;;-142.11;100.00
14800;BME280;7491;57.750;11.970;2023-04-29T01:02:39;76453.16;;;-142.11;100.00
14800;BME280;7491;57.750;11.970;2023-04-29T01:05:06;76447.03;;;-142.11;100.00
14800;BME280;7491;57.750;11.970;2023-04-29T01:07:38;76451.09;;;-142.11;100.00
14800;BME280;7491;57.750;11.970;2023-04-29T01:10:09;76453.16;;;-142.11;100.00
14800;BME280;7491;57.750;11.970;2023-04-29T01:12:44;76442.94;;;-142.11;100.00
14800;BME280;7491;57.750;11.970;2023-04-29T01:15:20;76440.91;;;-142.11;100.00
14800;BME280;7491;57.750;11.970;2023-04-29T01:17:50;76461.31;;;-142.11;100.00
14800;BME280;7491;57.750;11.970;2023-04-29T01:20:20;76459.25;;;-142.11;100.00
14800;BME280;7491;57.750;11.970;2023-04-29T01:22:47;76455.19;;;-142.11;100.00
14800;BME280;7491;57.750;11.970;2023-04-29T01:25:15;76449.06;;;-142.11;100.00
14800;BME280;7491;57.750;11.970;2023-04-29T01:27:51;76453.16;;;-142.11;100.00
14800;BME280;7491;57.750;11.970;2023-04-29T01:30:27;76461.31;;;-142.11;100.00
14800;BME280;7491;57.750;11.970;2023-04-29T01:33:00;76481.69;;;-142.11;100.00
14800;BME280;7491;57.750;11.970;2023-04-29T01:35:39;76479.66;;;-142.11;100.00
14800;BME280;7491;57.750;11.970;2023-04-29T01:38:16;76493.91;;;-142.11;100.00
14800;BME280;7491;57.750;11.970;2023-04-29T01:40:52;76475.56;;;-142.11;100.00
14800;BME280;7491;57.750;11.970;2023-04-29T01:43:29;76481.69;;;-142.11;100.00
14800;BME280;7491;57.750;11.970;2023-04-29T01:45:57;76485.75;;;-142.11;100.00
14800;BME280;7491;57.750;11.970;2023-04-29T01:48:25;76483.72;;;-142.11;100.00
14800;BME280;7491;57.750;11.970;2023-04-29T01:50:52;76485.75;;;-142.11;100.00
14800;BME280;7491;57.750;11.970;2023-04-29T01:53:18;76481.69;;;-142.11;100.00
14800;BME280;7491;57.750;11.970;2023-04-29T01:55:45;76477.63;;;-142.11;100.00
14800;BME280;7491;57.750;11.970;2023-04-29T01:58:13;76502.06;;;-142.11;100.00
14800;BME280;7491;57.750;11.970;2023-04-29T02:00:40;76502.06;;;-142.11;100.00
14800;BME280;7491;57.750;11.970;2023-04-29T02:03:07;76489.84;;;-142.11;100.00
14800;BME280;7491;57.750;11.970;2023-04-29T02:05:33;76479.66;;;-142.11;100.00
14800;BME280;7491;57.750;11.970;2023-04-29T02:08:00;76477.63;;;-142.11;100.00
14800;BME280;7491;57.750;11.970;2023-04-29T02:10:27;76473.53;;;-142.11;100.00
14800;BME280;7491;57.750;11.970;2023-04-29T02:12:54;76473.53;;;-142.11;100.00
14800;BME280;7491;57.750;11.970;2023-04-29T02:15:25;76473.53;;;-142.11;100.00
14800;BME280;7491;57.750;11.970;2023-04-29T02:17:51;76487.81;;;-142.11;100.00
14800;BME280;7491;57.750;11.970;2023-04-29T02:20:18;76481.69;;;-142.11;100.00
14800;BME280;7491;57.750;11.970;2023-04-29T02:22:45;76469.44;;;-142.11;100.00
14800;BME280;7491;57.750;11.970;2023-04-29T02:25:11;76467.41;;;-142.11;100.00
14800;BME280;7491;57.750;11.970;2023-04-29T02:27:39;76475.56;;;-142.11;100.00
14800;BME280;7491;57.750;11.970;2023-04-29T02:30:06;76471.50;;;-142.11;100.00
14800;BME280;7491;57.750;11.970;2023-04-29T02:32:35;76475.56;;;-142.11;100.00
14800;BME280;7491;57.750;11.970;2023-04-29T02:35:04;76475.56;;;-142.11;100.00
14800;BME280;7491;57.750;11.970;2023-04-29T02:37:31;76489.84;;;-142.11;100.00
14800;BME280;7491;57.750;11.970;2023-04-29T02:39:57;76483.72;;;-142.11;100.00
14800;BME280;7491;57.750;11.970;2023-04-29T02:42:24;76481.69;;;-142.11;100.00
14800;BME280;7491;57.750;11.970;2023-04-29T02:44:51;76481.69;;;-142.11;100.00
14800;BME280;7491;57.750;11.970;2023-04-29T02:47:17;76477.63;;;-142.11;100.00
14800;BME280;7491;57.750;11.970;2023-04-29T02:49:45;76483.72;;;-142.11;100.00
14800;BME280;7491;57.750;11.970;2023-04-29T02:52:12;76487.81;;;-142.11;100.00
14800;BME280;7491;57.750;11.970;2023-04-29T02:54:39;76495.97;;;-142.11;100.00
14800;BME280;7491;57.750;11.970;2023-04-29T02:57:05;76493.91;;;-142.11;100.00
14800;BME280;7491;57.750;11.970;2023-04-29T02:59:33;76498.00;;;-142.11;100.00
14800;BME280;7491;57.750;11.970;2023-04-29T03:02:00;76485.75;;;-142.11;100.00
14800;BME280;7491;57.750;11.970;2023-04-29T03:04:27;76479.66;;;-142.11;100.00
14800;BME280;7491;57.750;11.970;2023-04-29T03:06:55;76479.66;;;-142.11;100.00
14800;BME280;7491;57.750;11.970;2023-04-29T03:09:22;76473.53;;;-142.11;100.00
14800;BME280;7491;57.750;11.970;2023-04-29T03:11:49;76473.53;;;-142.11;100.00
14800;BME280;7491;57.750;11.970;2023-04-29T03:14:15;76467.41;;;-142.11;100.00
14800;BME280;7491;57.750;11.970;2023-04-29T03:16:42;76467.41;;;-142.11;100.00
14800;BME280;7491;57.750;11.970;2023-04-29T03:19:09;76469.44;;;-142.11;100.00
14800;BME280;7491;57.750;11.970;2023-04-29T03:21:36;76469.44;;;-142.11;100.00
14800;BME280;7491;57.750;11.970;2023-04-29T03:24:05;76463.34;;;-142.11;100.00
14800;BME280;7491;57.750;11.970;2023-04-29T03:26:31;76463.34;;;-142.11;100.00
14800;BME280;7491;57.750;11.970;2023-04-29T03:28:58;76475.56;;;-142.11;100.00
14800;BME280;7491;57.750;11.970;2023-04-29T03:31:25;76463.34;;;-142.11;100.00
14800;BME280;7491;57.750;11.970;2023-04-29T03:33:52;76467.41;;;-142.11;100.00
14800;BME280;7491;57.750;11.970;2023-04-29T03:36:18;76457.22;;;-142.11;100.00
14800;BME280;7491;57.750;11.970;2023-04-29T03:38:45;76459.25;;;-142.11;100.00
14800;BME280;7491;57.750;11.970;2023-04-29T03:41:13;76459.25;;;-142.11;100.00
14800;BME280;7491;57.750;11.970;2023-04-29T03:43:40;76463.34;;;-142.11;100.00
14800;BME280;7491;57.750;11.970;2023-04-29T03:46:08;76473.53;;;-142.11;100.00
14800;BME280;7491;57.750;11.970;2023-04-29T03:48:35;76467.41;;;-142.11;100.00
14800;BME280;7491;57.750;11.970;2023-04-29T03:51:02;76467.41;;;-142.11;100.00
14800;BME280;7491;57.750;11.970;2023-04-29T03:53:29;76461.31;;;-142.11;100.00
14800;BME280;7491;57.750;11.970;2023-04-29T03:55:57;76461.31;;;-142.11;100.00
14800;BME280;7491;57.750;11.970;2023-04-29T03:58:25;76451.09;;;-142.11;100.00
14800;BME280;7491;57.750;11.970;2023-04-29T04:00:52;76453.16;;;-142.11;100.00
14800;BME280;7491;57.750;11.970;2023-04-29T04:03:18;76447.03;;;-142.11;100.00
14800;BME280;7491;57.750;11.970;2023-04-29T04:05:46;76434.78;;;-142.11;100.00
14800;BME280;7491;57.750;11.970;2023-04-29T04:08:13;76432.75;;;-142.11;100.00
14800;BME280;7491;57.750;11.970;2023-04-29T04:10:40;76420.53;;;-142.11;100.00
14800;BME280;7491;57.750;11.970;2023-04-29T04:13:06;76426.66;;;-142.11;100.00
14800;BME280;7491;57.750;11.970;2023-04-29T04:15:34;76418.50;;;-142.11;100.00
14800;BME280;7491;57.750;11.970;2023-04-29T04:18:01;76412.38;;;-142.11;100.00
14800;BME280;7491;57.750;11.970;2023-04-29T04:20:28;76408.28;;;-142.11;100.00
14800;BME280;7491;57.750;11.970;2023-04-29T04:22:55;76410.34;;;-142.11;100.00
14800;BME280;7491;57.750;11.970;2023-04-29T04:25:22;76410.34;;;-142.11;100.00
14800;BME280;7491;57.750;11.970;2023-04-29T04:27:48;76402.19;;;-142.11;100.00
14800;BME280;7491;57.750;11.970;2023-04-29T04:30:15;76410.34;;;-142.11;100.00
14800;BME280;7491;57.750;11.970;2023-04-29T04:32:43;76396.06;;;-142.11;100.00
14800;BME280;7491;57.750;11.970;2023-04-29T04:35:10;76387.91;;;-142.11;100.00
14800;BME280;7491;57.750;11.970;2023-04-29T04:37:37;76371.59;;;-142.11;100.00
14800;BME280;7491;57.750;11.970;2023-04-29T04:40:05;76361.41;;;-142.11;100.00
14800;BME280;7491;57.750;11.970;2023-04-29T04:42:32;76336.94;;;-142.11;100.00
14800;BME280;7491;57.750;11.970;2023-04-29T04:44:59;76332.88;;;-142.11;100.00
14800;BME280;7491;57.750;11.970;2023-04-29T04:47:25;76316.56;;;-142.11;100.00
14800;BME280;7491;57.750;11.970;2023-04-29T04:49:53;76314.53;;;-142.11;100.00
14800;BME280;7491;57.750;11.970;2023-04-29T04:52:20;76300.25;;;-142.11;100.00
14800;BME280;7491;57.750;11.970;2023-04-29T04:54:47;76292.09;;;-142.11;100.00
14800;BME280;7491;57.750;11.970;2023-04-29T04:57:14;76267.63;;;-142.11;100.00
14800;BME280;7491;57.750;11.970;2023-04-29T04:59:40;76263.56;;;-142.11;100.00
14800;BME280;7491;57.750;11.970;2023-04-29T05:02:07;76245.22;;;-142.11;100.00
14800;BME280;7491;57.750;11.970;2023-04-29T05:04:34;76237.06;;;-142.11;100.00
14800;BME280;7491;57.750;11.970;2023-04-29T05:07:02;76208.50;;;-142.11;100.00
14800;BME280;7491;57.750;11.970;2023-04-29T05:09:29;76202.41;;;-142.11;100.00
14800;BME280;7491;57.750;11.970;2023-04-29T05:11:56;76198.31;;;-142.11;100.00
14800;BME280;7491;57.750;11.970;2023-04-29T05:14:24;76167.75;;;-142.11;100.00
14800;BME280;7491;57.750;11.970;2023-04-29T05:16:50;76145.31;;;-142.11;100.00
14800;BME280;7491;57.750;11.970;2023-04-29T05:19:17;76135.13;;;-142.11;100.00
14800;BME280;7491;57.750;11.970;2023-04-29T05:21:44;76124.94;;;-142.11;100.00
14800;BME280;7491;57.750;11.970;2023-04-29T05:24:18;76116.78;;;-142.11;100.00
14800;BME280;7491;57.750;11.970;2023-04-29T05:26:45;76106.59;;;-142.11;100.00
14800;BME280;7491;57.750;11.970;2023-04-29T05:29:11;76098.44;;;-142.11;100.00
14800;BME280;7491;57.750;11.970;2023-04-29T05:31:40;76100.47;;;-142.11;100.00
14800;BME280;7491;57.750;11.970;2023-04-29T05:34:09;76076.00;;;-142.11;100.00
14800;BME280;7491;57.750;11.970;2023-04-29T05:36:39;76084.16;;;-142.11;100.00
14800;BME280;7491;57.750;11.970;2023-04-29T05:39:09;76055.63;;;-142.11;100.00
14800;BME280;7491;57.750;11.970;2023-04-29T05:41:43;76035.25;;;-142.11;100.00
14800;BME280;7491;57.750;11.970;2023-04-29T05:44:41;76023.00;;;-142.11;100.00
14800;BME280;7491;57.750;11.970;2023-04-29T05:47:45;76002.63;;;-142.11;100.00
14800;BME280;7491;57.750;11.970;2023-04-29T05:50:13;76010.78;;;-142.11;100.00
14800;BME280;7491;57.750;11.970;2023-04-29T05:52:57;76012.81;;;-142.11;100.00
14800;BME280;7491;57.750;11.970;2023-04-29T05:59:05;76002.63;;;-142.11;100.00
14800;BME280;7491;57.750;11.970;2023-04-29T06:01:35;75992.44;;;-142.11;100.00
14800;BME280;7491;57.750;11.970;2023-04-29T06:18:06;75980.22;;;-142.11;100.00
14800;BME280;7491;57.750;11.970;2023-04-29T06:21:17;75976.13;;;-142.11;100.00
14800;BME280;7491;57.750;11.970;2023-04-29T06:24:11;75974.09;;;-142.11;100.00
14800;BME280;7491;57.750;11.970;2023-04-29T06:50:51;75886.44;;;-142.11;100.00
14800;BME280;7491;57.750;11.970;2023-04-29T07:10:39;75845.69;;;-142.11;100.00
14800;BME280;7491;57.750;11.970;2023-04-29T07:16:19;75845.69;;;-142.11;100.00
14800;BME280;7491;57.750;11.970;2023-04-29T07:18:52;75843.63;;;-142.11;100.00
14800;BME280;7491;57.750;11.970;2023-04-29T07:21:22;75843.63;;;-142.11;100.00
14800;BME280;7491;57.750;11.970;2023-04-29T07:24:30;75841.59;;;-142.11;100.00
14800;BME280;7491;57.750;11.970;2023-04-29T07:27:03;75843.63;;;-142.11;100.00
14800;BME280;7491;57.750;11.970;2023-04-29T07:58:08;75912.94;;;-142.11;100.00
14800;BME280;7491;57.750;11.970;2023-04-29T08:01:21;75910.91;;;-142.11;100.00
14800;BME280;7491;57.750;11.970;2023-04-29T08:04:03;75910.91;;;-142.11;100.00
14800;BME280;7491;57.750;11.970;2023-04-29T08:12:47;75927.22;;;-142.11;100.00
14800;BME280;7491;57.750;11.970;2023-04-29T08:15:46;75939.44;;;-142.11;100.00
14800;BME280;7491;57.750;11.970;2023-04-29T08:18:13;75941.47;;;-142.11;100.00
14800;BME280;7491;57.750;11.970;2023-04-29T08:20:43;75943.50;;;-142.11;100.00
14800;BME280;7491;57.750;11.970;2023-04-29T08:23:13;75935.38;;;-142.11;100.00
14800;BME280;7491;57.750;11.970;2023-04-29T08:25:44;75949.63;;;-142.11;100.00
14800;BME280;7491;57.750;11.970;2023-04-29T08:28:11;75943.50;;;-142.11;100.00
14800;BME280;7491;57.750;11.970;2023-04-29T08:30:55;75951.66;;;-142.11;100.00
14800;BME280;7491;57.750;11.970;2023-04-29T08:33:22;75957.78;;;-142.11;100.00
14800;BME280;7491;57.750;11.970;2023-04-29T08:35:57;75947.59;;;-142.11;100.00
14800;BME280;7491;57.750;11.970;2023-04-29T08:38:24;75967.97;;;-142.11;100.00
14800;BME280;7491;57.750;11.970;2023-04-29T08:40:53;75955.75;;;-142.11;100.00
14800;BME280;7491;57.750;11.970;2023-04-29T08:43:21;75947.59;;;-142.11;100.00
14800;BME280;7491;57.750;11.970;2023-04-29T08:45:48;75945.56;;;-142.11;100.00
14800;BME280;7491;57.750;11.970;2023-04-29T08:48:16;75937.41;;;-142.11;100.00
14800;BME280;7491;57.750;11.970;2023-04-29T08:50:43;75937.41;;;-142.11;100.00
14800;BME280;7491;57.750;11.970;2023-04-29T08:53:11;75945.56;;;-142.11;100.00
14800;BME280;7491;57.750;11.970;2023-04-29T08:55:41;75949.63;;;-142.11;100.00
14800;BME280;7491;57.750;11.970;2023-04-29T08:58:10;75949.63;;;-142.11;100.00
14800;BME280;7491;57.750;11.970;2023-04-29T09:00:41;75967.97;;;-142.11;100.00
14800;BME280;7491;57.750;11.970;2023-04-29T09:03:14;75974.09;;;-142.11;100.00
14800;BME280;7491;57.750;11.970;2023-04-29T09:05:44;75967.97;;;-142.11;100.00
14800;BME280;7491;57.750;11.970;2023-04-29T09:08:13;75959.81;;;-142.11;100.00
14800;BME280;7491;57.750;11.970;2023-04-29T09:10:41;75949.63;;;-142.11;100.00
14800;BME280;7491;57.750;11.970;2023-04-29T09:13:22;75959.81;;;-142.11;100.00
14800;BME280;7491;57.750;11.970;2023-04-29T09:15:49;75959.81;;;-142.11;100.00
14800;BME280;7491;57.750;11.970;2023-04-29T09:18:40;75978.16;;;-142.11;100.00
14800;BME280;7491;57.750;11.970;2023-04-29T09:21:16;75988.34;;;-142.11;100.00
14800;BME280;7491;57.750;11.970;2023-04-29T09:23:43;75976.13;;;-142.11;100.00
14800;BME280;7491;57.750;11.970;2023-04-29T09:26:10;75972.06;;;-142.11;100.00
14800;BME280;7491;57.750;11.970;2023-04-29T09:28:38;75949.63;;;-142.11;100.00
14800;BME280;7491;57.750;11.970;2023-04-29T09:31:08;75947.59;;;-142.11;100.00
14800;BME280;7491;57.750;11.970;2023-04-29T09:33:56;75943.50;;;-142.11;100.00
14800;BME280;7491;57.750;11.970;2023-04-29T09:36:37;75955.75;;;-142.11;100.00
14800;BME280;7491;57.750;11.970;2023-04-29T09:39:04;75967.97;;;-142.11;100.00
14800;BME280;7491;57.750;11.970;2023-04-29T09:41:36;75957.78;;;-142.11;100.00
14800;BME280;7491;57.750;11.970;2023-04-29T09:44:06;75937.41;;;-142.11;100.00
14800;BME280;7491;57.750;11.970;2023-04-29T09:46:33;75908.88;;;-142.11;100.00
14800;BME280;7491;57.750;11.970;2023-04-29T09:49:01;75882.38;;;-142.11;100.00
14800;BME280;7491;57.750;11.970;2023-04-29T09:51:29;75855.88;;;-142.11;100.00
14800;BME280;7491;57.750;11.970;2023-04-29T09:54:21;75827.34;;;-142.11;100.00
14800;BME280;7491;57.750;11.970;2023-04-29T09:56:53;75817.13;;;-142.11;100.00
14800;BME280;7491;57.750;11.970;2023-04-29T10:20:48;75813.06;;;-142.11;100.00
14800;BME280;7491;57.750;11.970;2023-04-29T10:23:50;75823.25;;;-142.11;100.00
14800;BME280;7491;57.750;11.970;2023-04-29T10:29:44;75813.06;;;-142.11;100.00
14800;BME280;7491;57.750;11.970;2023-04-29T10:32:37;75825.28;;;-142.11;100.00
14800;BME280;7491;57.750;11.970;2023-04-29T10:35:26;75837.53;;;-142.11;100.00
14800;BME280;7491;57.750;11.970;2023-04-29T10:38:07;75833.44;;;-142.11;100.00
14800;BME280;7491;57.750;11.970;2023-04-29T10:40:41;75829.38;;;-142.11;100.00
14800;BME280;7491;57.750;11.970;2023-04-29T10:46:32;75804.91;;;-142.11;100.00
14800;BME280;7491;57.750;11.970;2023-04-29T10:49:22;75802.88;;;-142.11;100.00
14800;BME280;7491;57.750;11.970;2023-04-29T10:52:43;75798.78;;;-142.11;100.00
14800;BME280;7491;57.750;11.970;2023-04-29T10:55:18;75817.13;;;-142.11;100.00
14800;BME280;7491;57.750;11.970;2023-04-29T10:57:45;75813.06;;;-142.11;100.00
14800;BME280;7491;57.750;11.970;2023-04-29T11:00:26;75802.88;;;-142.11;100.00
14800;BME280;7491;57.750;11.970;2023-04-29T11:06:07;75804.91;;;-142.11;100.00
14800;BME280;7491;57.750;11.970;2023-04-29T11:08:39;75794.72;;;-142.11;100.00
14800;BME280;7491;57.750;11.970;2023-04-29T11:14:20;75794.72;;;-142.11;100.00
14800;BME280;7491;57.750;11.970;2023-04-29T11:17:03;75796.75;;;-142.11;100.00
14800;BME280;7491;57.750;11.970;2023-04-29T11:20:27;75798.78;;;-142.11;100.00
14800;BME280;7491;57.750;11.970;2023-04-29T11:22:57;75788.59;;;-142.11;100.00
14800;BME280;7491;57.750;11.970;2023-04-29T11:25:24;75766.19;;;-142.11;100.00
14800;BME280;7491;57.750;11.970;2023-04-29T11:34:50;75786.56;;;-142.11;100.00
14800;BME280;7491;57.750;11.970;2023-04-29T11:41:20;75843.63;;;-142.11;100.00
14800;BME280;7491;57.750;11.970;2023-04-29T11:43:55;75882.38;;;-142.11;100.00
14800;BME280;7491;57.750;11.970;2023-04-29T11:46:24;75851.78;;;-142.11;100.00
14800;BME280;7491;57.750;11.970;2023-04-29T11:48:53;75837.53;;;-142.11;100.00
14800;BME280;7491;57.750;11.970;2023-04-29T11:51:20;75823.25;;;-142.11;100.00
14800;BME280;7491;57.750;11.970;2023-04-29T11:53:47;75847.72;;;-142.11;100.00
14800;BME280;7491;57.750;11.970;2023-04-29T11:56:30;75853.81;;;-142.11;100.00
14800;BME280;7491;57.750;11.970;2023-04-29T11:59:16;75817.13;;;-142.11;100.00
14800;BME280;7491;57.750;11.970;2023-04-29T12:05:22;75796.75;;;-142.11;99.87
14800;BME280;7491;57.750;11.970;2023-04-29T12:08:03;75776.38;;;-142.11;96.88
14800;BME280;7491;57.750;11.970;2023-04-29T12:14:46;75745.81;;;-142.11;99.67
14800;BME280;7491;57.750;11.970;2023-04-29T12:18:04;75768.22;;;-142.11;98.49
14800;BME280;7491;57.750;11.970;2023-04-29T12:20:44;75756.00;;;-142.11;99.02
14800;BME280;7491;57.750;11.970;2023-04-29T12:26:48;75756.00;;;-142.11;97.32
14800;BME280;7491;57.750;11.970;2023-04-29T12:29:42;75772.28;;;-142.11;97.41
14800;BME280;7491;57.750;11.970;2023-04-29T12:32:37;75774.34;;;-142.11;98.48
14800;BME280;7491;57.750;11.970;2023-04-29T12:35:36;75739.69;;;-142.11;98.62
14800;BME280;7491;57.750;11.970;2023-04-29T12:45:02;75747.84;;;-142.11;97.74
14800;BME280;7491;57.750;11.970;2023-04-29T12:50:42;75774.34;;;-142.11;96.36
14800;BME280;7491;57.750;11.970;2023-04-29T12:57:06;75768.22;;;-142.11;99.59
14800;BME280;7491;57.750;11.970;2023-04-29T12:59:56;75721.34;;;-142.11;99.00
14800;BME280;7491;57.750;11.970;2023-04-29T13:03:02;75729.50;;;-142.11;95.46
14800;BME280;7491;57.750;11.970;2023-04-29T13:12:51;75733.56;;;-142.11;96.34
14800;BME280;7491;57.750;11.970;2023-04-29T13:24:55;75760.06;;;-142.11;98.46
14800;BME280;7491;57.750;11.970;2023-04-29T13:32:05;75739.69;;;-142.11;99.21
14800;BME280;7491;57.750;11.970;2023-04-29T13:35:22;75741.72;;;-142.11;98.74
14800;BME280;7491;57.750;11.970;2023-04-29T13:38:32;75745.81;;;-142.11;98.53
14800;BME280;7491;57.750;11.970;2023-04-29T13:41:47;75745.81;;;-142.11;97.79
14800;BME280;7491;57.750;11.970;2023-04-29T13:48:27;75751.91;;;-142.11;96.96
14800;BME280;7491;57.750;11.970;2023-04-29T13:51:58;75741.72;;;-142.11;96.13
14800;BME280;7491;57.750;11.970;2023-04-29T15:16:59;75721.34;;;-142.11;99.76
14800;BME280;7491;57.750;11.970;2023-04-29T15:18:58;75719.31;;;-142.11;98.86
14800;BME280;7491;57.750;11.970;2023-04-29T15:21:35;75756.00;;;-142.11;98.42
14800;BME280;7491;57.750;11.970;2023-04-29T15:28:13;75737.66;;;-142.11;98.47
14800;BME280;7491;57.750;11.970;2023-04-29T15:38:29;75725.41;;;-142.11;97.32
14800;BME280;7491;57.750;11.970;2023-04-29T15:48:41;75703.00;;;-142.11;96.52
14800;BME280;7491;57.750;11.970;2023-04-29T15:51:45;75715.22;;;-142.11;96.74
14800;BME280;7491;57.750;11.970;2023-04-29T15:54:29;75711.16;;;-142.11;94.86
14800;BME280;7491;57.750;11.970;2023-04-29T16:01:25;75700.97;;;-142.11;94.67
14800;BME280;7491;57.750;11.970;2023-04-29T16:04:10;75723.38;;;-142.11;93.97
14800;BME280;7491;57.750;11.970;2023-04-29T16:06:40;75719.31;;;-142.11;94.53
14800;BME280;7491;57.750;11.970;2023-04-29T16:12:38;75723.38;;;-142.11;94.75
14800;BME280;7491;57.750;11.970;2023-04-29T16:18:51;75721.34;;;-142.11;95.49
14800;BME280;7491;57.750;11.970;2023-04-29T16:21:24;75729.50;;;-142.11;95.34
14800;BME280;7491;57.750;11.970;2023-04-29T16:23:59;75715.22;;;-142.11;94.62
14800;BME280;7491;57.750;11.970;2023-04-29T16:26:48;75747.84;;;-142.11;95.82
14800;BME280;7491;57.750;11.970;2023-04-29T18:04:40;75951.66;;;-142.11;100.00
14800;BME280;7491;57.750;11.970;2023-04-29T18:07:45;75959.81;;;-142.11;100.00
14800;BME280;7491;57.750;11.970;2023-04-29T18:20:43;75980.22;;;-142.11;100.00
14800;BME280;7491;57.750;11.970;2023-04-29T18:23:26;75996.50;;;-142.11;100.00
14800;BME280;7491;57.750;11.970;2023-04-29T18:25:59;76002.63;;;-142.11;100.00
14800;BME280;7491;57.750;11.970;2023-04-29T18:28:28;75986.31;;;-142.11;100.00
14800;BME280;7491;57.750;11.970;2023-04-29T18:31:00;76008.75;;;-142.11;100.00
14800;BME280;7491;57.750;11.970;2023-04-29T18:33:30;76020.97;;;-142.11;100.00
14800;BME280;7491;57.750;11.970;2023-04-29T18:36:12;76025.06;;;-142.11;100.00
14800;BME280;7491;57.750;11.970;2023-04-29T18:38:40;76033.22;;;-142.11;100.00
14800;BME280;7491;57.750;11.970;2023-04-29T18:41:10;76041.34;;;-142.11;100.00
14800;BME280;7491;57.750;11.970;2023-04-29T18:43:41;76037.28;;;-142.11;100.00
14800;BME280;7491;57.750;11.970;2023-04-29T18:46:12;76049.50;;;-142.11;100.00
14800;BME280;7491;57.750;11.970;2023-04-29T18:48:39;76051.56;;;-142.11;100.00
14800;BME280;7491;57.750;11.970;2023-04-29T18:51:10;76059.69;;;-142.11;100.00
14800;BME280;7491;57.750;11.970;2023-04-29T18:53:37;76065.81;;;-142.11;100.00
14800;BME280;7491;57.750;11.970;2023-04-29T18:56:08;76076.00;;;-142.11;100.00
14800;BME280;7491;57.750;11.970;2023-04-29T18:58:43;76080.09;;;-142.11;100.00
14800;BME280;7491;57.750;11.970;2023-04-29T19:01:12;76090.28;;;-142.11;100.00
14800;BME280;7491;57.750;11.970;2023-04-29T19:03:38;76088.25;;;-142.11;100.00
14800;BME280;7491;57.750;11.970;2023-04-29T19:06:07;76114.75;;;-142.11;100.00
14800;BME280;7491;57.750;11.970;2023-04-29T19:08:35;76102.50;;;-142.11;100.00
14800;BME280;7491;57.750;11.970;2023-04-29T19:11:02;76112.72;;;-142.11;100.00
14800;BME280;7491;57.750;11.970;2023-04-29T19:13:31;76112.72;;;-142.11;100.00
14800;BME280;7491;57.750;11.970;2023-04-29T19:15:58;76122.91;;;-142.11;100.00
14800;BME280;7491;57.750;11.970;2023-04-29T19:18:27;76133.09;;;-142.11;100.00
14800;BME280;7491;57.750;11.970;2023-04-29T19:20:56;76135.13;;;-142.11;100.00
14800;BME280;7491;57.750;11.970;2023-04-29T19:23:22;76151.44;;;-142.11;100.00
14800;BME280;7491;57.750;11.970;2023-04-29T19:25:49;76149.41;;;-142.11;100.00
14800;BME280;7491;57.750;11.970;2023-04-29T19:28:16;76155.50;;;-142.11;100.00
14800;BME280;7491;57.750;11.970;2023-04-29T19:30:46;76163.66;;;-142.11;100.00
14800;BME280;7491;57.750;11.970;2023-04-29T19:33:13;76167.75;;;-142.11;100.00
14800;BME280;7491;57.750;11.970;2023-04-29T19:35:44;76171.81;;;-142.11;100.00
14800;BME280;7491;57.750;11.970;2023-04-29T19:38:10;76175.91;;;-142.11;100.00
14800;BME280;7491;57.750;11.970;2023-04-29T19:40:38;76188.13;;;-142.11;100.00
14800;BME280;7491;57.750;11.970;2023-04-29T19:43:05;76184.06;;;-142.11;100.00
14800;BME280;7491;57.750;11.970;2023-04-29T19:45:32;76188.13;;;-142.11;100.00
14800;BME280;7491;57.750;11.970;2023-04-29T19:47:58;76200.34;;;-142.11;100.00
14800;BME280;7491;57.750;11.970;2023-04-29T19:50:26;76214.63;;;-142.11;100.00